createdAt,value
2018-07-30T00:01:18.244Z,23.66
2018-07-30T00:07:13.253Z,27.3
2018-07-30T00:13:08.260Z,26.97
2018-07-30T00:19:03.257Z,29.21
2018-07-30T00:24:58.291Z,24.68
2018-07-30T00:30:53.341Z,28.13
2018-07-30T00:36:48.271Z,26.82
2018-07-30T00:42:43.314Z,25.14
2018-07-30T00:48:38.260Z,26.53
2018-07-30T00:54:33.291Z,28.32
2018-07-30T01:00:28.307Z,26.54
2018-07-30T01:06:23.287Z,28.8
2018-07-30T01:12:18.344Z,29.61
2018-07-30T01:18:13.305Z,27.91
2018-07-30T01:24:08.295Z,30.13
2018-07-30T01:30:03.363Z,27.24
2018-07-30T01:35:58.293Z,24.99
2018-07-30T01:41:53.322Z,30.84
2018-07-30T01:47:48.310Z,28.74
2018-07-30T01:53:43.353Z,29.76
2018-07-30T01:59:38.309Z,29.55
2018-07-30T02:05:33.334Z,29.04
2018-07-30T02:11:28.337Z,40.27
2018-07-30T02:17:23.330Z,33.52
2018-07-30T02:23:18.326Z,31.91
2018-07-30T02:29:13.376Z,38.92
2018-07-30T02:35:08.341Z,27.23
2018-07-30T02:41:03.408Z,28.61
2018-07-30T02:46:58.375Z,27.96
2018-07-30T02:52:53.391Z,29
2018-07-30T02:58:48.363Z,28.2
2018-07-30T03:04:43.419Z,27.93
2018-07-30T03:10:38.378Z,29.74
2018-07-30T03:16:33.372Z,26.73
2018-07-30T03:22:28.392Z,27.63
2018-07-30T03:28:23.378Z,29.57
2018-07-30T03:34:18.376Z,31.87
2018-07-30T03:40:13.497Z,27.96
2018-07-30T03:46:08.382Z,31.33
2018-07-30T03:52:03.381Z,28.49
2018-07-30T03:57:58.444Z,26.01
2018-07-30T04:03:53.399Z,24.97
2018-07-30T04:09:48.457Z,26.92
2018-07-30T04:15:43.437Z,30.23
2018-07-30T04:21:38.445Z,27.7
2018-07-30T04:27:33.422Z,28.62
2018-07-30T04:33:28.417Z,25.31
2018-07-30T04:39:23.468Z,27.3
2018-07-30T04:45:18.413Z,36.23
2018-07-30T04:51:13.434Z,40.79
2018-07-30T04:57:08.427Z,38.75
2018-07-30T05:03:03.434Z,40.57
2018-07-30T05:08:58.472Z,39.92
2018-07-30T05:14:53.444Z,44.85
2018-07-30T05:20:48.471Z,46.16
2018-07-30T05:26:43.457Z,77.28
2018-07-30T05:32:38.464Z,75.71
2018-07-30T05:38:33.532Z,38.66
2018-07-30T05:44:28.452Z,30.53
2018-07-30T05:50:23.440Z,35.16
2018-07-30T05:56:18.499Z,32.85
2018-07-30T06:02:13.463Z,30.71
2018-07-30T06:08:08.519Z,34.38
2018-07-30T06:14:03.489Z,35.74
2018-07-30T06:19:58.518Z,37.07
2018-07-30T06:25:53.501Z,36.24
2018-07-30T06:31:48.555Z,30.17
2018-07-30T06:37:43.490Z,34.04
2018-07-30T06:43:38.490Z,35.72
2018-07-30T06:49:33.500Z,35.76
2018-07-30T06:55:28.483Z,32.79
2018-07-30T07:01:23.549Z,31.65
2018-07-30T07:07:18.514Z,33.05
2018-07-30T07:13:13.518Z,35.19
2018-07-30T07:19:08.505Z,35.49
2018-07-30T07:25:03.515Z,32.33
2018-07-30T07:30:58.566Z,25.89
2018-07-30T07:36:53.531Z,28.31
2018-07-30T07:42:48.528Z,27.15
2018-07-30T07:48:43.560Z,24.76
2018-07-30T07:54:38.541Z,25.3
2018-07-30T08:00:33.541Z,26.56
2018-07-30T08:06:28.540Z,25.24
2018-07-30T08:12:23.602Z,24.93
2018-07-30T08:18:18.594Z,28.63
2018-07-30T08:24:13.574Z,33.97
2018-07-30T08:30:08.632Z,34.13
2018-07-30T08:36:03.586Z,35.73
2018-07-30T08:41:58.582Z,30.77
2018-07-30T08:47:53.582Z,32.36
2018-07-30T08:53:48.583Z,28.73
2018-07-30T08:59:43.617Z,30.43
2018-07-30T09:05:38.577Z,29.04
2018-07-30T09:11:33.569Z,30.44
2018-07-30T09:17:28.605Z,25.25
2018-07-30T09:23:23.616Z,23.79
2018-07-30T09:29:18.600Z,28.41
2018-07-30T09:35:13.601Z,31.2
2018-07-30T09:41:08.621Z,32.5
2018-07-30T09:47:03.643Z,21.57
2018-07-30T09:52:58.651Z,22.26
2018-07-30T09:58:53.611Z,27.58
2018-07-30T10:04:48.669Z,21.91
2018-07-30T10:10:43.606Z,21.71
2018-07-30T10:16:38.636Z,19.7
2018-07-30T10:22:33.623Z,21.79
2018-07-30T10:28:28.623Z,18.16
2018-07-30T10:34:23.702Z,20.37
2018-07-30T10:40:18.697Z,19
2018-07-30T10:46:13.659Z,15.4
2018-07-30T10:52:08.660Z,14.53
2018-07-30T10:58:03.674Z,16.24
2018-07-30T11:03:58.666Z,18.79
2018-07-30T11:09:53.669Z,14.07
2018-07-30T11:15:48.665Z,14.62
2018-07-30T11:21:43.736Z,14.07
2018-07-30T11:27:38.707Z,12.19
2018-07-30T11:33:33.769Z,13.68
2018-07-30T11:39:28.695Z,14.72
2018-07-30T11:45:23.711Z,16.76
2018-07-30T11:51:18.717Z,10.63
2018-07-30T11:57:13.681Z,13.7
2018-07-30T12:03:08.687Z,10.04
2018-07-30T12:09:03.686Z,10.12
2018-07-30T12:14:58.725Z,7.9
2018-07-30T12:20:53.762Z,8.61
2018-07-30T12:26:48.733Z,7.3
2018-07-30T12:32:43.739Z,6.7
2018-07-30T12:38:38.763Z,6.51
2018-07-30T12:44:33.715Z,14.52
2018-07-30T12:50:28.816Z,6.53
2018-07-30T12:56:23.764Z,5.99
2018-07-30T13:02:18.725Z,5.61
2018-07-30T13:08:13.777Z,5.13
2018-07-30T13:14:08.748Z,5.45
2018-07-30T13:20:03.746Z,5.8
2018-07-30T13:25:58.775Z,5.38
2018-07-30T13:31:53.780Z,4.66
2018-07-30T13:37:48.719Z,6.35
2018-07-30T13:43:43.772Z,4.01
2018-07-30T13:49:38.765Z,4.92
2018-07-30T13:55:33.771Z,4.65
2018-07-30T14:01:28.817Z,7.68
2018-07-30T14:07:23.758Z,6.58
2018-07-30T14:13:18.783Z,6.97
2018-07-30T14:19:13.791Z,5.53
2018-07-30T14:25:08.760Z,8.47
2018-07-30T14:31:03.805Z,7.58
2018-07-30T14:36:58.807Z,8.66
2018-07-30T14:42:53.802Z,6.51
2018-07-30T14:48:48.790Z,7.02
2018-07-30T14:54:43.780Z,7.07
2018-07-30T15:00:38.788Z,6.56
2018-07-30T15:06:33.801Z,8.59
2018-07-30T15:12:28.850Z,10.35
2018-07-30T15:18:23.796Z,8.37
2018-07-30T15:24:18.839Z,9.4
2018-07-30T15:30:13.809Z,8.68
2018-07-30T15:36:08.851Z,12.75
2018-07-30T15:42:03.837Z,11.54
2018-07-30T15:47:58.822Z,7.62
2018-07-30T15:53:53.832Z,9.69
2018-07-30T15:59:48.832Z,8.91
2018-07-30T16:05:43.863Z,11.68
2018-07-30T16:11:38.827Z,15.03
2018-07-30T16:17:33.844Z,12.22
2018-07-30T16:23:28.940Z,12.53
2018-07-30T16:29:23.864Z,12.25
2018-07-30T16:35:18.872Z,12.89
2018-07-30T16:41:13.874Z,12.99
2018-07-30T16:47:09.027Z,9.36
2018-07-30T16:53:03.853Z,15.44
2018-07-30T16:58:58.879Z,10.47
2018-07-30T17:04:53.855Z,14.76
2018-07-30T17:10:48.862Z,12.1
2018-07-30T17:16:43.882Z,9.87
2018-07-30T17:22:38.884Z,8.61
2018-07-30T17:28:33.884Z,11.38
2018-07-30T17:34:28.903Z,12.11
2018-07-30T17:40:23.897Z,11.46
2018-07-30T17:46:18.887Z,17.63
2018-07-30T17:52:13.920Z,13.04
2018-07-30T17:58:08.907Z,12.44
2018-07-30T18:04:03.949Z,11.65
2018-07-30T18:09:58.909Z,13.58
2018-07-30T18:15:53.924Z,10.5
2018-07-30T18:21:48.899Z,16.76
2018-07-30T18:27:43.909Z,12.38
2018-07-30T18:33:38.912Z,13.55
2018-07-30T18:39:33.927Z,15.7
2018-07-30T18:45:28.936Z,12.3
2018-07-30T18:51:23.989Z,15.4
2018-07-30T18:57:18.975Z,11.52
2018-07-30T19:03:13.949Z,12.4
2018-07-30T19:09:08.965Z,12.8
2018-07-30T19:15:03.940Z,16.29
2018-07-30T19:20:58.985Z,18.46
2018-07-30T19:26:53.983Z,14.84
2018-07-30T19:32:48.978Z,19.41
2018-07-30T19:38:43.975Z,14.96
2018-07-30T19:44:39.030Z,14.25
2018-07-30T19:50:33.973Z,22.58
2018-07-30T19:56:28.988Z,14.42
2018-07-30T20:02:23.995Z,19.19
2018-07-30T20:08:18.990Z,17.43
2018-07-30T20:14:14.003Z,15.72
2018-07-30T20:20:09.009Z,18.75
2018-07-30T20:26:04.013Z,18.44
2018-07-30T20:31:58.995Z,16.15
2018-07-30T20:37:54.016Z,18.07
2018-07-30T20:43:49.020Z,25.99
2018-07-30T20:49:44.005Z,22.57
2018-07-30T20:55:39.009Z,33.87
2018-07-30T21:01:34.050Z,33.87
2018-07-30T21:07:29.067Z,33.4
2018-07-30T21:13:24.028Z,37.23
2018-07-30T21:19:19.046Z,30.69
2018-07-30T21:25:14.053Z,51.21
2018-07-30T21:31:09.065Z,42.12
2018-07-30T21:37:04.033Z,23.61
2018-07-30T21:42:59.037Z,24.13
2018-07-30T21:48:54.051Z,23.11
2018-07-30T21:54:49.047Z,44.47
2018-07-30T22:00:44.039Z,26.24
2018-07-30T22:06:39.090Z,25.36
2018-07-30T22:12:34.056Z,25.85
2018-07-30T22:18:29.099Z,28.62
2018-07-30T22:24:24.093Z,27.02
2018-07-30T22:30:19.063Z,34.22
2018-07-30T22:36:14.079Z,25.87
2018-07-30T22:42:09.074Z,34.79
2018-07-30T22:48:04.087Z,30.73
2018-07-30T22:53:59.089Z,28.68
2018-07-30T22:59:54.168Z,26.33
2018-07-30T23:05:49.096Z,32.29
2018-07-30T23:11:44.102Z,34.42
2018-07-30T23:17:39.136Z,32.84
2018-07-30T23:23:34.096Z,29.16
2018-07-30T23:29:29.103Z,30.39
2018-07-30T23:35:24.126Z,37.11
2018-07-30T23:41:19.100Z,31.97
2018-07-30T23:47:14.120Z,33.5
2018-07-30T23:53:09.159Z,26.94
2018-07-30T23:59:04.215Z,34.49
